Anzahl Datensätze: 144
min. Temperatur: -3.2 °C
max. Temperatur: 6.1 °C
max. Windgeschwindigkeit: 11.2 km/h
Niederschlagsumme: 0.0 mm
| Datum |
Zeit |
Temp °C |
Feuchte % |
Taupunkt °C |
Luftdruck hPa |
Wind km/h |
Windrichtung |
Strahlung w/m² |
Niederschlag mm |
|---|---|---|---|---|---|---|---|---|---|
| 01.02.2026 | 00:02 | -1.6 | 86 | -3.7 | 1010.2 | 0.7 | NNO | 0 | 0.0 |
| 01.02.2026 | 00:12 | -1.2 | 85 | -3.4 | 1010.2 | 0.4 | N | 0 | 0.0 |
| 01.02.2026 | 00:22 | -1.3 | 84 | -3.6 | 1010.1 | 1.8 | N | 0 | 0.0 |
| 01.02.2026 | 00:32 | -1.3 | 85 | -3.5 | 1010.1 | 0.7 | N | 0 | 0.0 |
| 01.02.2026 | 00:42 | -1.3 | 85 | -3.6 | 1010.1 | 1.4 | S | 0 | 0.0 |
| 01.02.2026 | 00:52 | -1.6 | 85 | -3.8 | 1010.3 | 2.2 | NO | 0 | 0.0 |
| 01.02.2026 | 01:02 | -1.4 | 84 | -3.7 | 1010.2 | 0.7 | N | 0 | 0.0 |
| 01.02.2026 | 01:12 | -1.2 | 85 | -3.4 | 1010.2 | 3.2 | S | 0 | 0.0 |
| 01.02.2026 | 01:22 | -1.6 | 85 | -3.8 | 1010.2 | 2.9 | NNO | 0 | 0.0 |
| 01.02.2026 | 01:32 | -1.7 | 85 | -4.0 | 1010.3 | 1.4 | NNO | 0 | 0.0 |
| 01.02.2026 | 01:42 | -1.8 | 84 | -4.1 | 1010.3 | 1.8 | N | 0 | 0.0 |
| 01.02.2026 | 01:52 | -1.9 | 83 | -4.3 | 1010.3 | 3.2 | NNO | 0 | 0.0 |
| 01.02.2026 | 02:02 | -1.9 | 86 | -4.0 | 1010.4 | 1.4 | NNO | 0 | 0.0 |
| 01.02.2026 | 02:12 | -2.0 | 86 | -4.0 | 1010.4 | 1.1 | NNO | 0 | 0.0 |
| 01.02.2026 | 02:22 | -1.9 | 85 | -4.2 | 1010.5 | 2.9 | N | 0 | 0.0 |
| 01.02.2026 | 02:32 | -2.1 | 86 | -4.1 | 1010.6 | 1.4 | NNO | 0 | 0.0 |
| 01.02.2026 | 02:42 | -2.1 | 85 | -4.3 | 1010.7 | 2.5 | NNO | 0 | 0.0 |
| 01.02.2026 | 02:52 | -1.8 | 85 | -4.0 | 1010.7 | 1.4 | NNO | 0 | 0.0 |
| 01.02.2026 | 03:02 | -1.9 | 83 | -4.4 | 1010.6 | 2.2 | NNO | 0 | 0.0 |
| 01.02.2026 | 03:12 | -1.8 | 83 | -4.4 | 1010.7 | 1.8 | S | 0 | 0.0 |
| 01.02.2026 | 03:22 | -1.8 | 82 | -4.5 | 1010.6 | 1.4 | NNO | 0 | 0.0 |
| 01.02.2026 | 03:32 | -1.9 | 83 | -4.4 | 1010.7 | 1.8 | NNW | 0 | 0.0 |
| 01.02.2026 | 03:42 | -2.2 | 85 | -4.4 | 1010.7 | 2.9 | NO | 0 | 0.0 |
| 01.02.2026 | 03:52 | -2.0 | 84 | -4.4 | 1010.7 | 1.4 | N | 0 | 0.0 |
| 01.02.2026 | 04:03 | -2.2 | 82 | -4.9 | 1010.8 | 2.2 | NNO | 0 | 0.0 |
| 01.02.2026 | 04:13 | -2.0 | 84 | -4.3 | 1010.8 | 1.4 | N | 0 | 0.0 |
| 01.02.2026 | 04:23 | -2.6 | 85 | -4.8 | 1010.9 | 4.7 | NNO | 0 | 0.0 |
| 01.02.2026 | 04:33 | -2.5 | 83 | -5.0 | 1010.9 | 1.4 | NO | 0 | 0.0 |
| 01.02.2026 | 04:43 | -2.1 | 82 | -4.7 | 1010.9 | 1.4 | ONO | 0 | 0.0 |
| 01.02.2026 | 04:53 | -2.3 | 82 | -5.0 | 1010.9 | 1.8 | NNO | 0 | 0.0 |
| 01.02.2026 | 05:03 | -2.5 | 84 | -4.8 | 1011.0 | 1.8 | NNO | 0 | 0.0 |
| 01.02.2026 | 05:13 | -2.7 | 85 | -4.9 | 1011.2 | 2.2 | NNO | 0 | 0.0 |
| 01.02.2026 | 05:23 | -2.3 | 83 | -4.8 | 1011.2 | 1.1 | N | 0 | 0.0 |
| 01.02.2026 | 05:33 | -2.5 | 83 | -5.0 | 1011.3 | 1.4 | NNW | 0 | 0.0 |
| 01.02.2026 | 05:43 | -2.7 | 83 | -5.1 | 1011.3 | 1.4 | N | 0 | 0.0 |
| 01.02.2026 | 05:53 | -2.6 | 83 | -5.1 | 1011.3 | 1.1 | ONO | 0 | 0.0 |
| 01.02.2026 | 06:03 | -2.3 | 83 | -4.8 | 1011.5 | 1.4 | NO | 0 | 0.0 |
| 01.02.2026 | 06:13 | -2.7 | 84 | -5.1 | 1011.6 | 4.0 | NNO | 0 | 0.0 |
| 01.02.2026 | 06:23 | -2.8 | 84 | -5.2 | 1011.8 | 1.4 | NNO | 0 | 0.0 |
| 01.02.2026 | 06:33 | -2.5 | 82 | -5.2 | 1011.7 | 1.1 | NNO | 0 | 0.0 |
| 01.02.2026 | 06:43 | -2.7 | 83 | -5.3 | 1011.9 | 0.7 | N | 0 | 0.0 |
| 01.02.2026 | 06:53 | -2.9 | 83 | -5.4 | 1011.8 | 2.5 | NNO | 0 | 0.0 |
| 01.02.2026 | 07:03 | -2.7 | 84 | -5.1 | 1011.7 | 1.1 | N | 0 | 0.0 |
| 01.02.2026 | 07:13 | -3.1 | 84 | -5.4 | 1011.9 | 2.2 | NNO | 0 | 0.0 |
| 01.02.2026 | 07:23 | -2.8 | 83 | -5.3 | 1012.0 | 0.7 | N | 0 | 0.0 |
| 01.02.2026 | 07:33 | -2.6 | 81 | -5.4 | 1011.9 | 2.2 | S | 0 | 0.0 |
| 01.02.2026 | 07:43 | -2.7 | 82 | -5.4 | 1011.9 | 1.8 | NO | 0 | 0.0 |
| 01.02.2026 | 07:53 | -3.2 | 83 | -5.6 | 1011.9 | 2.2 | NNO | 3 | 0.0 |
| 01.02.2026 | 08:03 | -3.1 | 83 | -5.6 | 1012.0 | 0.4 | N | 6 | 0.0 |
| 01.02.2026 | 08:13 | -3.0 | 82 | -5.6 | 1011.8 | 1.8 | N | 9 | 0.0 |
| 01.02.2026 | 08:23 | -2.8 | 83 | -5.3 | 1011.7 | 2.2 | NNO | 12 | 0.0 |
| 01.02.2026 | 08:33 | -2.9 | 84 | -5.3 | 1011.8 | 1.4 | N | 15 | 0.0 |
| 01.02.2026 | 08:43 | -3.0 | 83 | -5.5 | 1011.8 | 1.1 | N | 18 | 0.0 |
| 01.02.2026 | 08:53 | -2.7 | 81 | -5.6 | 1011.7 | 2.5 | NNO | 20 | 0.0 |
| 01.02.2026 | 09:03 | -2.8 | 82 | -5.5 | 1011.7 | 1.1 | N | 22 | 0.0 |
| 01.02.2026 | 09:13 | -2.5 | 80 | -5.4 | 1011.6 | 1.8 | NO | 24 | 0.0 |
| 01.02.2026 | 09:23 | -2.8 | 81 | -5.6 | 1011.7 | 1.8 | NNO | 25 | 0.0 |
| 01.02.2026 | 09:33 | -2.5 | 82 | -5.2 | 1011.6 | 1.1 | N | 27 | 0.0 |
| 01.02.2026 | 09:44 | -2.7 | 82 | -5.4 | 1011.5 | 1.8 | N | 28 | 0.0 |
| 01.02.2026 | 09:54 | -1.9 | 81 | -4.8 | 1011.4 | 1.4 | N | 30 | 0.0 |
| 01.02.2026 | 10:04 | -0.8 | 77 | -4.3 | 1011.2 | 0.7 | N | 193 | 0.0 |
| 01.02.2026 | 10:14 | 0.3 | 74 | -3.9 | 1010.7 | 1.1 | N | 207 | 0.0 |
| 01.02.2026 | 10:24 | 0.4 | 72 | -4.0 | 1010.6 | 2.2 | S | 220 | 0.0 |
| 01.02.2026 | 10:34 | 0.6 | 71 | -4.1 | 1010.6 | 1.8 | SSW | 232 | 0.0 |
| 01.02.2026 | 10:44 | 1.4 | 70 | -3.4 | 1010.2 | 2.2 | SSW | 244 | 0.0 |
| 01.02.2026 | 10:54 | 2.1 | 71 | -2.6 | 1010.0 | 1.8 | SSW | 254 | 0.0 |
| 01.02.2026 | 11:04 | 1.3 | 72 | -3.1 | 1010.1 | 3.2 | S | 264 | 0.0 |
| 01.02.2026 | 11:14 | 1.3 | 73 | -3.0 | 1010.0 | 7.2 | S | 273 | 0.0 |
| 01.02.2026 | 11:24 | 1.1 | 75 | -2.7 | 1009.8 | 4.0 | S | 281 | 0.0 |
| 01.02.2026 | 11:34 | 1.5 | 73 | -2.8 | 1009.5 | 5.0 | S | 288 | 0.0 |
| 01.02.2026 | 11:44 | 1.4 | 71 | -3.3 | 1009.6 | 3.6 | S | 295 | 0.0 |
| 01.02.2026 | 11:54 | 1.3 | 73 | -3.0 | 1009.2 | 3.6 | S | 302 | 0.0 |
| 01.02.2026 | 12:04 | 2.1 | 67 | -3.4 | 1008.8 | 2.9 | S | 308 | 0.0 |
| 01.02.2026 | 12:14 | 1.5 | 69 | -3.5 | 1008.7 | 6.5 | S | 312 | 0.0 |
| 01.02.2026 | 12:24 | 1.7 | 66 | -3.9 | 1008.6 | 4.0 | S | 310 | 0.0 |
| 01.02.2026 | 12:34 | 2.9 | 59 | -4.4 | 1008.1 | 3.6 | S | 322 | 0.0 |
| 01.02.2026 | 12:44 | 3.3 | 55 | -4.8 | 1007.9 | 4.7 | SW | 325 | 0.0 |
| 01.02.2026 | 12:54 | 2.3 | 63 | -4.0 | 1008.1 | 2.9 | S | 310 | 0.0 |
| 01.02.2026 | 13:04 | 3.4 | 65 | -2.5 | 1007.7 | 1.8 | N | 279 | 0.0 |
| 01.02.2026 | 13:14 | 4.4 | 60 | -2.6 | 1007.2 | 4.3 | SW | 317 | 0.0 |
| 01.02.2026 | 13:24 | 3.6 | 63 | -2.9 | 1007.2 | 3.6 | SSW | 287 | 0.0 |
| 01.02.2026 | 13:34 | 3.4 | 60 | -3.6 | 1007.1 | 4.3 | SSW | 315 | 0.0 |
| 01.02.2026 | 13:44 | 4.0 | 57 | -3.9 | 1006.9 | 4.0 | S | 284 | 0.0 |
| 01.02.2026 | 13:54 | 3.5 | 63 | -2.9 | 1007.1 | 4.3 | SSW | 279 | 0.0 |
| 01.02.2026 | 14:04 | 4.0 | 60 | -3.2 | 1006.9 | 5.4 | S | 277 | 0.0 |
| 01.02.2026 | 14:14 | 4.9 | 57 | -2.9 | 1006.7 | 4.0 | S | 289 | 0.0 |
| 01.02.2026 | 14:24 | 4.7 | 59 | -2.6 | 1006.8 | 5.4 | W | 141 | 0.0 |
| 01.02.2026 | 14:34 | 5.0 | 60 | -2.1 | 1006.8 | 3.2 | WSW | 272 | 0.0 |
| 01.02.2026 | 14:45 | 4.6 | 59 | -2.7 | 1006.8 | 5.4 | W | 239 | 0.0 |
| 01.02.2026 | 14:55 | 5.5 | 58 | -2.0 | 1006.6 | 3.2 | W | 254 | 0.0 |
| 01.02.2026 | 15:05 | 6.1 | 57 | -1.9 | 1006.5 | 1.4 | WNW | 210 | 0.0 |
| 01.02.2026 | 15:15 | 5.5 | 59 | -2.0 | 1006.6 | 3.2 | W | 167 | 0.0 |
| 01.02.2026 | 15:25 | 4.9 | 61 | -2.0 | 1006.8 | 1.4 | SSW | 71 | 0.0 |
| 01.02.2026 | 15:35 | 5.1 | 60 | -2.0 | 1006.9 | 2.9 | WSW | 155 | 0.0 |
| 01.02.2026 | 15:45 | 4.8 | 56 | -3.1 | 1006.8 | 3.6 | N | 91 | 0.0 |
| 01.02.2026 | 15:55 | 5.1 | 59 | -2.3 | 1006.7 | 3.2 | SW | 91 | 0.0 |
| 01.02.2026 | 16:05 | 4.1 | 63 | -2.4 | 1006.9 | 2.5 | SSO | 62 | 0.0 |
| 01.02.2026 | 16:15 | 3.7 | 64 | -2.4 | 1006.8 | 2.5 | N | 53 | 0.0 |
| 01.02.2026 | 16:25 | 3.7 | 63 | -2.8 | 1006.7 | 2.9 | S | 53 | 0.0 |
| 01.02.2026 | 16:35 | 3.1 | 68 | -2.2 | 1006.9 | 2.5 | S | 39 | 0.0 |
| 01.02.2026 | 16:45 | 2.2 | 67 | -3.3 | 1007.1 | 1.8 | NW | 29 | 0.0 |
| 01.02.2026 | 16:55 | 2.6 | 68 | -2.8 | 1007.1 | 1.8 | SSW | 22 | 0.0 |
| 01.02.2026 | 17:05 | 2.5 | 71 | -2.3 | 1007.0 | 2.5 | N | 13 | 0.0 |
| 01.02.2026 | 17:15 | 2.6 | 70 | -2.4 | 1006.6 | 0.7 | N | 7 | 0.0 |
| 01.02.2026 | 17:25 | 2.1 | 67 | -3.4 | 1006.7 | 3.6 | N | 5 | 0.0 |
| 01.02.2026 | 17:35 | 2.2 | 65 | -3.7 | 1006.6 | 3.2 | NO | 2 | 0.0 |
| 01.02.2026 | 17:45 | 2.0 | 71 | -2.7 | 1006.6 | 2.5 | NNW | 0 | 0.0 |
| 01.02.2026 | 17:55 | 1.6 | 72 | -3.0 | 1006.7 | 1.8 | NNO | 0 | 0.0 |
| 01.02.2026 | 18:05 | 1.6 | 74 | -2.5 | 1006.6 | 1.1 | N | 0 | 0.0 |
| 01.02.2026 | 18:15 | 1.6 | 73 | -2.7 | 1006.6 | 1.8 | N | 0 | 0.0 |
| 01.02.2026 | 18:25 | 1.1 | 73 | -3.1 | 1006.7 | 1.8 | ONO | 0 | 0.0 |
| 01.02.2026 | 18:35 | 1.1 | 73 | -3.2 | 1006.7 | 2.9 | S | 0 | 0.0 |
| 01.02.2026 | 18:45 | 1.0 | 73 | -3.2 | 1006.8 | 0.4 | N | 0 | 0.0 |
| 01.02.2026 | 18:55 | 0.9 | 72 | -3.7 | 1006.8 | 1.4 | N | 0 | 0.0 |
| 01.02.2026 | 19:05 | 1.1 | 72 | -3.4 | 1006.9 | 1.1 | ONO | 0 | 0.0 |
| 01.02.2026 | 19:15 | 0.6 | 72 | -3.8 | 1006.9 | 2.5 | NNO | 0 | 0.0 |
| 01.02.2026 | 19:25 | 0.9 | 71 | -3.7 | 1006.8 | 0.7 | N | 0 | 0.0 |
| 01.02.2026 | 19:35 | 0.9 | 72 | -3.6 | 1006.8 | 1.8 | N | 0 | 0.0 |
| 01.02.2026 | 19:45 | 0.7 | 75 | -3.2 | 1006.7 | 1.4 | N | 0 | 0.0 |
| 01.02.2026 | 19:56 | 0.5 | 74 | -3.5 | 1006.9 | 6.5 | NNO | 0 | 0.0 |
| 01.02.2026 | 20:06 | 0.7 | 75 | -3.3 | 1006.9 | 0.4 | N | 0 | 0.0 |
| 01.02.2026 | 20:16 | 0.5 | 77 | -3.1 | 1006.9 | 2.2 | N | 0 | 0.0 |
| 01.02.2026 | 20:26 | 0.0 | 78 | -3.4 | 1007.1 | 2.9 | SSW | 0 | 0.0 |
| 01.02.2026 | 20:36 | 0.4 | 76 | -3.3 | 1007.0 | 1.4 | N | 0 | 0.0 |
| 01.02.2026 | 20:46 | 0.6 | 74 | -3.5 | 1006.9 | 0.4 | N | 0 | 0.0 |
| 01.02.2026 | 20:56 | 0.4 | 76 | -3.4 | 1006.9 | 1.4 | N | 0 | 0.0 |
| 01.02.2026 | 21:06 | 0.0 | 77 | -3.5 | 1007.0 | 2.5 | N | 0 | 0.0 |
| 01.02.2026 | 21:16 | 0.4 | 74 | -3.8 | 1007.0 | 0.7 | N | 0 | 0.0 |
| 01.02.2026 | 21:26 | 0.2 | 74 | -3.9 | 1007.0 | 1.8 | N | 0 | 0.0 |
| 01.02.2026 | 21:36 | 0.1 | 75 | -3.8 | 1007.0 | 2.2 | NO | 0 | 0.0 |
| 01.02.2026 | 21:46 | 0.2 | 74 | -3.8 | 1007.0 | 1.8 | NNO | 0 | 0.0 |
| 01.02.2026 | 21:56 | 0.4 | 73 | -4.0 | 1007.0 | 2.2 | N | 0 | 0.0 |
| 01.02.2026 | 22:06 | -0.1 | 78 | -3.5 | 1007.1 | 1.8 | S | 0 | 0.0 |
| 01.02.2026 | 22:16 | -0.6 | 79 | -3.8 | 1007.2 | 1.4 | N | 0 | 0.0 |
| 01.02.2026 | 22:26 | -0.2 | 77 | -3.8 | 1006.9 | 2.2 | SSW | 0 | 0.0 |
| 01.02.2026 | 22:36 | -0.2 | 78 | -3.5 | 1006.9 | 2.5 | NNO | 0 | 0.0 |
| 01.02.2026 | 22:46 | -0.1 | 77 | -3.6 | 1006.8 | 1.8 | N | 0 | 0.0 |
| 01.02.2026 | 22:56 | -0.2 | 77 | -3.8 | 1006.7 | 1.4 | NNW | 0 | 0.0 |
| 01.02.2026 | 23:06 | 0.5 | 72 | -4.0 | 1006.5 | 1.1 | S | 0 | 0.0 |
| 01.02.2026 | 23:16 | 0.2 | 76 | -3.6 | 1006.4 | 1.8 | S | 0 | 0.0 |
| 01.02.2026 | 23:26 | 0.1 | 76 | -3.7 | 1006.5 | 1.4 | NO | 0 | 0.0 |
| 01.02.2026 | 23:36 | 0.2 | 76 | -3.5 | 1006.4 | 1.4 | NNO | 0 | 0.0 |
| 01.02.2026 | 23:46 | 0.5 | 74 | -3.5 | 1006.5 | 0.7 | N | 0 | 0.0 |
| 01.02.2026 | 23:56 | 0.7 | 75 | -3.3 | 1006.6 | 1.4 | N | 0 | 0.0 |